sensor_id;sensor_type;location;lat;lon;timestamp;P1;durP1;ratioP1;P2;durP2;ratioP2
67181;SDS011;54114;53.524;49.396;2023-06-04T00:00:13;4.85;;;2.70;;
67181;SDS011;54114;53.524;49.396;2023-06-04T00:02:40;4.78;;;3.05;;
67181;SDS011;54114;53.524;49.396;2023-06-04T00:05:07;5.00;;;3.00;;
67181;SDS011;54114;53.524;49.396;2023-06-04T00:07:34;4.12;;;2.95;;
67181;SDS011;54114;53.524;49.396;2023-06-04T00:10:03;5.65;;;3.30;;
67181;SDS011;54114;53.524;49.396;2023-06-04T00:12:33;6.20;;;2.83;;
67181;SDS011;54114;53.524;49.396;2023-06-04T00:14:59;4.90;;;2.90;;
67181;SDS011;54114;53.524;49.396;2023-06-04T00:17:26;4.20;;;2.78;;
67181;SDS011;54114;53.524;49.396;2023-06-04T00:19:53;4.03;;;2.83;;
67181;SDS011;54114;53.524;49.396;2023-06-04T00:22:19;6.07;;;3.08;;
67181;SDS011;54114;53.524;49.396;2023-06-04T00:24:51;4.65;;;2.97;;
67181;SDS011;54114;53.524;49.396;2023-06-04T00:27:18;4.30;;;3.05;;
67181;SDS011;54114;53.524;49.396;2023-06-04T00:29:44;5.72;;;3.15;;
67181;SDS011;54114;53.524;49.396;2023-06-04T00:32:11;3.22;;;2.53;;
67181;SDS011;54114;53.524;49.396;2023-06-04T00:34:40;4.85;;;3.10;;
67181;SDS011;54114;53.524;49.396;2023-06-04T00:37:06;4.30;;;2.55;;
67181;SDS011;54114;53.524;49.396;2023-06-04T00:39:33;3.03;;;2.55;;
67181;SDS011;54114;53.524;49.396;2023-06-04T00:42:00;3.80;;;2.65;;
67181;SDS011;54114;53.524;49.396;2023-06-04T00:44:27;7.07;;;3.10;;
67181;SDS011;54114;53.524;49.396;2023-06-04T00:46:54;6.03;;;2.67;;
67181;SDS011;54114;53.524;49.396;2023-06-04T00:49:21;4.22;;;2.80;;
67181;SDS011;54114;53.524;49.396;2023-06-04T00:51:50;4.25;;;2.60;;
67181;SDS011;54114;53.524;49.396;2023-06-04T00:54:17;5.22;;;3.00;;
67181;SDS011;54114;53.524;49.396;2023-06-04T00:56:46;5.00;;;2.70;;
67181;SDS011;54114;53.524;49.396;2023-06-04T00:59:13;6.05;;;3.17;;
67181;SDS011;54114;53.524;49.396;2023-06-04T01:07:55;5.07;;;3.30;;
67181;SDS011;54114;53.524;49.396;2023-06-04T01:10:23;4.75;;;3.10;;
67181;SDS011;54114;53.524;49.396;2023-06-04T01:12:50;9.90;;;3.87;;
67181;SDS011;54114;53.524;49.396;2023-06-04T01:15:16;9.27;;;3.12;;
67181;SDS011;54114;53.524;49.396;2023-06-04T01:17:44;7.87;;;3.70;;
67181;SDS011;54114;53.524;49.396;2023-06-04T01:26:04;7.05;;;3.53;;
67181;SDS011;54114;53.524;49.396;2023-06-04T01:28:32;5.40;;;3.45;;
67181;SDS011;54114;53.524;49.396;2023-06-04T01:31:00;4.75;;;3.22;;
67181;SDS011;54114;53.524;49.396;2023-06-04T01:33:29;7.10;;;3.40;;
67181;SDS011;54114;53.524;49.396;2023-06-04T01:35:55;6.18;;;4.30;;
67181;SDS011;54114;53.524;49.396;2023-06-04T01:38:23;5.68;;;4.28;;
67181;SDS011;54114;53.524;49.396;2023-06-04T01:40:50;6.57;;;4.78;;
67181;SDS011;54114;53.524;49.396;2023-06-04T01:43:21;11.00;;;4.90;;
67181;SDS011;54114;53.524;49.396;2023-06-04T01:45:50;10.25;;;5.30;;
67181;SDS011;54114;53.524;49.396;2023-06-04T01:48:20;11.43;;;6.12;;
67181;SDS011;54114;53.524;49.396;2023-06-04T01:50:49;11.73;;;6.18;;
67181;SDS011;54114;53.524;49.396;2023-06-04T01:53:18;11.40;;;6.35;;
67181;SDS011;54114;53.524;49.396;2023-06-04T01:55:49;12.18;;;6.80;;
67181;SDS011;54114;53.524;49.396;2023-06-04T01:58:19;11.63;;;6.87;;
67181;SDS011;54114;53.524;49.396;2023-06-04T02:00:51;14.95;;;7.72;;
67181;SDS011;54114;53.524;49.396;2023-06-04T02:03:20;12.75;;;7.32;;
67181;SDS011;54114;53.524;49.396;2023-06-04T02:05:50;13.77;;;8.45;;
67181;SDS011;54114;53.524;49.396;2023-06-04T02:08:17;17.65;;;9.20;;
67181;SDS011;54114;53.524;49.396;2023-06-04T02:10:47;14.57;;;7.35;;
67181;SDS011;54114;53.524;49.396;2023-06-04T02:13:14;10.30;;;6.80;;
67181;SDS011;54114;53.524;49.396;2023-06-04T02:15:41;12.95;;;7.00;;
67181;SDS011;54114;53.524;49.396;2023-06-04T02:18:14;22.00;;;10.43;;
67181;SDS011;54114;53.524;49.396;2023-06-04T02:20:48;23.45;;;12.48;;
67181;SDS011;54114;53.524;49.396;2023-06-04T02:23:18;24.05;;;12.60;;
67181;SDS011;54114;53.524;49.396;2023-06-04T02:25:48;25.35;;;11.68;;
67181;SDS011;54114;53.524;49.396;2023-06-04T02:28:15;20.25;;;12.55;;
67181;SDS011;54114;53.524;49.396;2023-06-04T02:30:42;17.20;;;10.00;;
67181;SDS011;54114;53.524;49.396;2023-06-04T02:33:11;20.05;;;11.38;;
67181;SDS011;54114;53.524;49.396;2023-06-04T02:35:38;24.85;;;12.85;;
67181;SDS011;54114;53.524;49.396;2023-06-04T02:38:06;28.33;;;13.68;;
67181;SDS011;54114;53.524;49.396;2023-06-04T02:40:33;24.92;;;13.10;;
67181;SDS011;54114;53.524;49.396;2023-06-04T02:43:00;24.35;;;13.70;;
67181;SDS011;54114;53.524;49.396;2023-06-04T02:45:29;24.25;;;13.48;;
67181;SDS011;54114;53.524;49.396;2023-06-04T02:47:58;30.45;;;12.43;;
67181;SDS011;54114;53.524;49.396;2023-06-04T02:50:25;23.65;;;12.43;;
67181;SDS011;54114;53.524;49.396;2023-06-04T02:52:54;20.98;;;11.48;;
67181;SDS011;54114;53.524;49.396;2023-06-04T02:55:21;17.08;;;10.75;;
67181;SDS011;54114;53.524;49.396;2023-06-04T02:57:50;16.60;;;9.60;;
67181;SDS011;54114;53.524;49.396;2023-06-04T03:00:17;13.55;;;9.48;;
67181;SDS011;54114;53.524;49.396;2023-06-04T03:02:45;15.82;;;9.75;;
67181;SDS011;54114;53.524;49.396;2023-06-04T03:05:13;14.50;;;9.45;;
67181;SDS011;54114;53.524;49.396;2023-06-04T03:07:43;14.75;;;7.68;;
67181;SDS011;54114;53.524;49.396;2023-06-04T03:10:12;12.37;;;7.53;;
67181;SDS011;54114;53.524;49.396;2023-06-04T03:12:40;11.98;;;7.03;;
67181;SDS011;54114;53.524;49.396;2023-06-04T03:15:07;15.27;;;7.03;;
67181;SDS011;54114;53.524;49.396;2023-06-04T03:17:35;11.85;;;6.78;;
67181;SDS011;54114;53.524;49.396;2023-06-04T03:20:02;10.00;;;6.35;;
67181;SDS011;54114;53.524;49.396;2023-06-04T03:22:30;14.40;;;5.40;;
67181;SDS011;54114;53.524;49.396;2023-06-04T03:24:59;10.32;;;5.90;;
67181;SDS011;54114;53.524;49.396;2023-06-04T03:27:29;10.52;;;5.53;;
67181;SDS011;54114;53.524;49.396;2023-06-04T03:29:59;8.32;;;5.50;;
67181;SDS011;54114;53.524;49.396;2023-06-04T03:32:26;10.10;;;5.22;;
67181;SDS011;54114;53.524;49.396;2023-06-04T03:34:53;7.37;;;5.10;;
67181;SDS011;54114;53.524;49.396;2023-06-04T03:37:20;10.52;;;5.20;;
67181;SDS011;54114;53.524;49.396;2023-06-04T03:39:47;11.43;;;5.25;;
67181;SDS011;54114;53.524;49.396;2023-06-04T03:42:13;13.18;;;4.82;;
67181;SDS011;54114;53.524;49.396;2023-06-04T03:44:40;5.85;;;4.22;;
67181;SDS011;54114;53.524;49.396;2023-06-04T03:47:07;9.80;;;4.90;;
67181;SDS011;54114;53.524;49.396;2023-06-04T03:49:33;9.38;;;4.50;;
67181;SDS011;54114;53.524;49.396;2023-06-04T03:52:00;5.95;;;4.45;;
67181;SDS011;54114;53.524;49.396;2023-06-04T03:54:27;8.18;;;4.40;;
67181;SDS011;54114;53.524;49.396;2023-06-04T03:56:53;9.32;;;4.60;;
67181;SDS011;54114;53.524;49.396;2023-06-04T03:59:22;9.15;;;4.30;;
67181;SDS011;54114;53.524;49.396;2023-06-04T04:01:53;11.77;;;4.60;;
67181;SDS011;54114;53.524;49.396;2023-06-04T04:04:24;8.60;;;4.43;;
67181;SDS011;54114;53.524;49.396;2023-06-04T04:06:54;8.27;;;4.60;;
67181;SDS011;54114;53.524;49.396;2023-06-04T04:09:27;10.15;;;5.03;;
67181;SDS011;54114;53.524;49.396;2023-06-04T04:11:59;8.75;;;5.28;;
67181;SDS011;54114;53.524;49.396;2023-06-04T04:14:25;6.75;;;4.65;;
67181;SDS011;54114;53.524;49.396;2023-06-04T04:16:54;7.45;;;4.60;;
67181;SDS011;54114;53.524;49.396;2023-06-04T04:19:26;7.87;;;4.65;;
67181;SDS011;54114;53.524;49.396;2023-06-04T04:21:54;8.02;;;4.82;;
67181;SDS011;54114;53.524;49.396;2023-06-04T04:24:24;10.70;;;4.72;;
67181;SDS011;54114;53.524;49.396;2023-06-04T04:26:52;8.40;;;4.45;;
67181;SDS011;54114;53.524;49.396;2023-06-04T04:29:22;6.97;;;5.05;;
67181;SDS011;54114;53.524;49.396;2023-06-04T04:31:52;7.03;;;4.80;;
67181;SDS011;54114;53.524;49.396;2023-06-04T04:34:21;7.43;;;4.60;;
67181;SDS011;54114;53.524;49.396;2023-06-04T04:36:56;9.13;;;4.62;;
67181;SDS011;54114;53.524;49.396;2023-06-04T04:39:28;9.20;;;4.90;;
67181;SDS011;54114;53.524;49.396;2023-06-04T04:41:54;7.82;;;4.10;;
67181;SDS011;54114;53.524;49.396;2023-06-04T04:44:28;5.75;;;3.08;;
67181;SDS011;54114;53.524;49.396;2023-06-04T04:46:59;4.80;;;2.92;;
67181;SDS011;54114;53.524;49.396;2023-06-04T04:49:26;4.45;;;2.85;;
67181;SDS011;54114;53.524;49.396;2023-06-04T04:51:55;7.10;;;3.00;;
67181;SDS011;54114;53.524;49.396;2023-06-04T04:54:22;6.37;;;3.55;;
67181;SDS011;54114;53.524;49.396;2023-06-04T04:56:53;5.43;;;2.85;;
67181;SDS011;54114;53.524;49.396;2023-06-04T04:59:23;7.35;;;3.47;;
67181;SDS011;54114;53.524;49.396;2023-06-04T05:01:55;5.55;;;3.35;;
67181;SDS011;54114;53.524;49.396;2023-06-04T05:04:24;4.30;;;2.95;;
67181;SDS011;54114;53.524;49.396;2023-06-04T05:06:51;7.65;;;3.10;;
67181;SDS011;54114;53.524;49.396;2023-06-04T05:09:20;5.22;;;3.30;;
67181;SDS011;54114;53.524;49.396;2023-06-04T05:11:47;4.82;;;3.47;;
67181;SDS011;54114;53.524;49.396;2023-06-04T05:14:14;3.90;;;2.75;;
67181;SDS011;54114;53.524;49.396;2023-06-04T05:16:42;5.65;;;2.67;;
67181;SDS011;54114;53.524;49.396;2023-06-04T05:19:09;4.80;;;2.75;;
67181;SDS011;54114;53.524;49.396;2023-06-04T05:21:41;7.00;;;3.40;;
67181;SDS011;54114;53.524;49.396;2023-06-04T05:24:11;7.75;;;2.72;;
67181;SDS011;54114;53.524;49.396;2023-06-04T05:26:41;5.03;;;3.25;;
67181;SDS011;54114;53.524;49.396;2023-06-04T05:29:08;6.40;;;3.70;;
67181;SDS011;54114;53.524;49.396;2023-06-04T05:31:34;3.85;;;2.75;;
67181;SDS011;54114;53.524;49.396;2023-06-04T05:34:05;6.43;;;3.17;;
67181;SDS011;54114;53.524;49.396;2023-06-04T05:36:31;5.87;;;3.35;;
67181;SDS011;54114;53.524;49.396;2023-06-04T05:39:01;10.57;;;3.75;;
67181;SDS011;54114;53.524;49.396;2023-06-04T05:41:28;7.05;;;3.45;;
67181;SDS011;54114;53.524;49.396;2023-06-04T05:43:57;6.85;;;3.50;;
67181;SDS011;54114;53.524;49.396;2023-06-04T05:46:24;5.47;;;3.72;;
67181;SDS011;54114;53.524;49.396;2023-06-04T05:48:51;10.27;;;3.60;;
67181;SDS011;54114;53.524;49.396;2023-06-04T05:51:18;8.00;;;3.35;;
67181;SDS011;54114;53.524;49.396;2023-06-04T05:53:46;5.68;;;3.25;;
67181;SDS011;54114;53.524;49.396;2023-06-04T05:56:13;8.48;;;3.40;;
67181;SDS011;54114;53.524;49.396;2023-06-04T05:58:39;5.85;;;3.37;;
67181;SDS011;54114;53.524;49.396;2023-06-04T06:01:07;5.43;;;3.65;;
67181;SDS011;54114;53.524;49.396;2023-06-04T06:03:33;6.00;;;3.25;;
67181;SDS011;54114;53.524;49.396;2023-06-04T06:06:01;4.65;;;3.10;;
67181;SDS011;54114;53.524;49.396;2023-06-04T06:08:31;6.18;;;3.25;;
67181;SDS011;54114;53.524;49.396;2023-06-04T06:10:57;7.10;;;3.47;;
67181;SDS011;54114;53.524;49.396;2023-06-04T06:13:24;5.50;;;3.05;;
67181;SDS011;54114;53.524;49.396;2023-06-04T06:15:51;5.78;;;2.67;;
67181;SDS011;54114;53.524;49.396;2023-06-04T06:18:21;3.78;;;2.72;;
67181;SDS011;54114;53.524;49.396;2023-06-04T06:20:47;5.47;;;3.50;;
67181;SDS011;54114;53.524;49.396;2023-06-04T06:23:17;5.93;;;2.78;;
67181;SDS011;54114;53.524;49.396;2023-06-04T06:25:48;4.78;;;2.87;;
67181;SDS011;54114;53.524;49.396;2023-06-04T06:28:17;5.68;;;2.58;;
67181;SDS011;54114;53.524;49.396;2023-06-04T06:30:44;3.30;;;2.10;;
67181;SDS011;54114;53.524;49.396;2023-06-04T06:33:11;3.87;;;2.30;;
67181;SDS011;54114;53.524;49.396;2023-06-04T06:35:38;9.25;;;2.58;;
67181;SDS011;54114;53.524;49.396;2023-06-04T06:38:05;3.35;;;2.30;;
67181;SDS011;54114;53.524;49.396;2023-06-04T06:40:34;2.83;;;2.15;;
67181;SDS011;54114;53.524;49.396;2023-06-04T06:43:03;2.70;;;1.80;;
67181;SDS011;54114;53.524;49.396;2023-06-04T06:45:32;3.65;;;2.10;;
67181;SDS011;54114;53.524;49.396;2023-06-04T06:47:58;2.65;;;1.75;;
67181;SDS011;54114;53.524;49.396;2023-06-04T06:50:25;2.20;;;1.77;;
67181;SDS011;54114;53.524;49.396;2023-06-04T06:52:52;2.15;;;1.55;;
67181;SDS011;54114;53.524;49.396;2023-06-04T06:55:19;2.83;;;1.50;;
67181;SDS011;54114;53.524;49.396;2023-06-04T06:57:47;8.95;;;2.20;;
67181;SDS011;54114;53.524;49.396;2023-06-04T07:00:14;5.93;;;1.85;;
67181;SDS011;54114;53.524;49.396;2023-06-04T07:02:42;5.12;;;1.52;;
67181;SDS011;54114;53.524;49.396;2023-06-04T07:05:08;5.00;;;1.77;;
67181;SDS011;54114;53.524;49.396;2023-06-04T07:07:36;4.00;;;1.70;;
67181;SDS011;54114;53.524;49.396;2023-06-04T07:10:03;3.35;;;1.80;;
67181;SDS011;54114;53.524;49.396;2023-06-04T07:12:33;2.47;;;1.80;;
67181;SDS011;54114;53.524;49.396;2023-06-04T07:15:00;4.55;;;2.22;;
67181;SDS011;54114;53.524;49.396;2023-06-04T07:17:27;2.67;;;1.60;;
67181;SDS011;54114;53.524;49.396;2023-06-04T07:19:54;3.72;;;1.75;;
67181;SDS011;54114;53.524;49.396;2023-06-04T07:22:20;3.17;;;2.00;;
67181;SDS011;54114;53.524;49.396;2023-06-04T07:24:49;2.78;;;1.90;;
67181;SDS011;54114;53.524;49.396;2023-06-04T07:27:16;3.42;;;1.80;;
67181;SDS011;54114;53.524;49.396;2023-06-04T07:29:43;2.97;;;1.95;;
67181;SDS011;54114;53.524;49.396;2023-06-04T07:32:11;2.42;;;1.67;;
67181;SDS011;54114;53.524;49.396;2023-06-04T07:34:38;2.83;;;1.98;;
67181;SDS011;54114;53.524;49.396;2023-06-04T07:37:05;5.53;;;2.12;;
67181;SDS011;54114;53.524;49.396;2023-06-04T07:39:33;3.45;;;1.85;;
67181;SDS011;54114;53.524;49.396;2023-06-04T07:41:59;3.15;;;2.10;;
67181;SDS011;54114;53.524;49.396;2023-06-04T07:44:28;5.35;;;1.62;;
67181;SDS011;54114;53.524;49.396;2023-06-04T07:46:57;3.67;;;2.25;;
67181;SDS011;54114;53.524;49.396;2023-06-04T07:49:24;3.35;;;1.77;;
67181;SDS011;54114;53.524;49.396;2023-06-04T07:51:51;2.40;;;2.10;;
67181;SDS011;54114;53.524;49.396;2023-06-04T07:54:18;6.82;;;1.98;;
67181;SDS011;54114;53.524;49.396;2023-06-04T07:56:45;3.53;;;2.03;;
67181;SDS011;54114;53.524;49.396;2023-06-04T07:59:12;6.60;;;1.90;;
67181;SDS011;54114;53.524;49.396;2023-06-04T08:01:38;4.60;;;2.00;;
67181;SDS011;54114;53.524;49.396;2023-06-04T08:04:05;4.93;;;2.20;;
67181;SDS011;54114;53.524;49.396;2023-06-04T08:06:32;3.53;;;1.70;;
67181;SDS011;54114;53.524;49.396;2023-06-04T08:08:59;3.08;;;1.60;;
67181;SDS011;54114;53.524;49.396;2023-06-04T08:11:25;7.32;;;2.15;;
67181;SDS011;54114;53.524;49.396;2023-06-04T08:13:54;2.97;;;1.50;;
67181;SDS011;54114;53.524;49.396;2023-06-04T08:16:21;2.30;;;1.70;;
67181;SDS011;54114;53.524;49.396;2023-06-04T08:18:48;11.10;;;2.47;;
67181;SDS011;54114;53.524;49.396;2023-06-04T08:21:24;7.72;;;2.00;;
67181;SDS011;54114;53.524;49.396;2023-06-04T08:23:54;5.85;;;1.90;;
67181;SDS011;54114;53.524;49.396;2023-06-04T08:26:23;6.55;;;1.80;;
67181;SDS011;54114;53.524;49.396;2023-06-04T08:28:52;2.65;;;1.58;;
67181;SDS011;54114;53.524;49.396;2023-06-04T08:31:19;5.25;;;1.58;;
67181;SDS011;54114;53.524;49.396;2023-06-04T08:33:51;2.25;;;1.48;;
67181;SDS011;54114;53.524;49.396;2023-06-04T08:36:17;3.62;;;1.77;;
67181;SDS011;54114;53.524;49.396;2023-06-04T08:38:44;2.95;;;1.33;;
67181;SDS011;54114;53.524;49.396;2023-06-04T08:41:23;5.15;;;1.83;;
67181;SDS011;54114;53.524;49.396;2023-06-04T08:46:27;3.40;;;1.42;;
67181;SDS011;54114;53.524;49.396;2023-06-04T08:49:00;2.28;;;1.23;;
67181;SDS011;54114;53.524;49.396;2023-06-04T08:51:28;3.28;;;1.15;;
67181;SDS011;54114;53.524;49.396;2023-06-04T08:53:59;5.20;;;1.90;;
67181;SDS011;54114;53.524;49.396;2023-06-04T08:56:26;3.05;;;1.60;;
67181;SDS011;54114;53.524;49.396;2023-06-04T08:59:06;1.60;;;1.30;;
67181;SDS011;54114;53.524;49.396;2023-06-04T09:01:36;3.00;;;1.25;;
67181;SDS011;54114;53.524;49.396;2023-06-04T09:04:04;3.53;;;1.30;;
67181;SDS011;54114;53.524;49.396;2023-06-04T09:06:32;2.65;;;1.33;;
67181;SDS011;54114;53.524;49.396;2023-06-04T09:08:59;1.95;;;1.40;;
67181;SDS011;54114;53.524;49.396;2023-06-04T09:11:33;3.67;;;1.55;;
67181;SDS011;54114;53.524;49.396;2023-06-04T09:14:07;2.03;;;1.23;;
67181;SDS011;54114;53.524;49.396;2023-06-04T09:16:51;1.33;;;1.20;;
67181;SDS011;54114;53.524;49.396;2023-06-04T09:21:50;3.08;;;1.12;;
67181;SDS011;54114;53.524;49.396;2023-06-04T09:24:19;2.33;;;1.08;;
67181;SDS011;54114;53.524;49.396;2023-06-04T09:26:47;5.47;;;1.17;;
67181;SDS011;54114;53.524;49.396;2023-06-04T09:29:18;1.65;;;1.00;;
67181;SDS011;54114;53.524;49.396;2023-06-04T09:32:06;1.83;;;1.12;;
67181;SDS011;54114;53.524;49.396;2023-06-04T09:34:33;1.35;;;1.12;;
67181;SDS011;54114;53.524;49.396;2023-06-04T09:37:00;1.48;;;1.10;;
67181;SDS011;54114;53.524;49.396;2023-06-04T09:39:27;1.90;;;1.00;;
67181;SDS011;54114;53.524;49.396;2023-06-04T09:41:57;1.15;;;0.95;;
67181;SDS011;54114;53.524;49.396;2023-06-04T09:44:31;1.87;;;1.12;;
67181;SDS011;54114;53.524;49.396;2023-06-04T09:46:57;2.42;;;1.20;;
67181;SDS011;54114;53.524;49.396;2023-06-04T09:49:29;1.17;;;1.08;;
67181;SDS011;54114;53.524;49.396;2023-06-04T09:52:20;1.50;;;1.23;;
67181;SDS011;54114;53.524;49.396;2023-06-04T09:54:47;2.15;;;1.50;;
67181;SDS011;54114;53.524;49.396;2023-06-04T09:57:17;2.17;;;1.12;;
67181;SDS011;54114;53.524;49.396;2023-06-04T09:59:45;9.88;;;1.27;;
67181;SDS011;54114;53.524;49.396;2023-06-04T10:02:21;1.95;;;1.20;;
67181;SDS011;54114;53.524;49.396;2023-06-04T10:04:49;2.95;;;1.10;;
67181;SDS011;54114;53.524;49.396;2023-06-04T10:07:25;0.98;;;0.90;;
67181;SDS011;54114;53.524;49.396;2023-06-04T10:09:55;8.70;;;1.12;;
67181;SDS011;54114;53.524;49.396;2023-06-04T10:12:28;1.83;;;1.23;;
67181;SDS011;54114;53.524;49.396;2023-06-04T10:15:05;6.03;;;1.15;;
67181;SDS011;54114;53.524;49.396;2023-06-04T10:17:36;1.92;;;1.00;;
67181;SDS011;54114;53.524;49.396;2023-06-04T10:20:07;1.55;;;0.90;;
67181;SDS011;54114;53.524;49.396;2023-06-04T10:22:37;2.05;;;1.05;;
67181;SDS011;54114;53.524;49.396;2023-06-04T10:25:07;2.12;;;0.80;;
67181;SDS011;54114;53.524;49.396;2023-06-04T10:27:35;1.65;;;1.10;;
67181;SDS011;54114;53.524;49.396;2023-06-04T10:30:04;2.45;;;1.40;;
67181;SDS011;54114;53.524;49.396;2023-06-04T10:32:39;3.83;;;1.10;;
67181;SDS011;54114;53.524;49.396;2023-06-04T10:35:07;2.62;;;1.00;;
67181;SDS011;54114;53.524;49.396;2023-06-04T10:37:37;4.22;;;1.00;;
67181;SDS011;54114;53.524;49.396;2023-06-04T10:40:08;2.33;;;0.88;;
67181;SDS011;54114;53.524;49.396;2023-06-04T10:42:40;2.35;;;0.95;;
67181;SDS011;54114;53.524;49.396;2023-06-04T10:45:12;1.02;;;0.62;;
67181;SDS011;54114;53.524;49.396;2023-06-04T10:47:42;4.90;;;1.00;;
67181;SDS011;54114;53.524;49.396;2023-06-04T10:50:16;3.70;;;0.80;;
67181;SDS011;54114;53.524;49.396;2023-06-04T10:52:55;2.67;;;1.27;;
67181;SDS011;54114;53.524;49.396;2023-06-04T10:55:24;3.22;;;0.88;;
67181;SDS011;54114;53.524;49.396;2023-06-04T10:58:02;6.32;;;0.82;;
67181;SDS011;54114;53.524;49.396;2023-06-04T11:00:54;2.25;;;1.17;;
67181;SDS011;54114;53.524;49.396;2023-06-04T11:03:20;1.08;;;0.85;;
67181;SDS011;54114;53.524;49.396;2023-06-04T11:05:47;1.35;;;0.90;;
67181;SDS011;54114;53.524;49.396;2023-06-04T11:08:26;3.28;;;0.90;;
67181;SDS011;54114;53.524;49.396;2023-06-04T11:10:54;4.00;;;1.00;;
67181;SDS011;54114;53.524;49.396;2023-06-04T11:13:25;8.77;;;0.95;;
67181;SDS011;54114;53.524;49.396;2023-06-04T11:15:51;4.35;;;1.00;;
67181;SDS011;54114;53.524;49.396;2023-06-04T11:18:23;5.55;;;1.05;;
67181;SDS011;54114;53.524;49.396;2023-06-04T11:20:58;1.98;;;0.73;;
67181;SDS011;54114;53.524;49.396;2023-06-04T11:23:29;0.95;;;0.70;;
67181;SDS011;54114;53.524;49.396;2023-06-04T11:25:58;5.65;;;0.70;;
67181;SDS011;54114;53.524;49.396;2023-06-04T11:28:26;2.15;;;0.68;;
67181;SDS011;54114;53.524;49.396;2023-06-04T11:30:56;2.75;;;0.80;;
67181;SDS011;54114;53.524;49.396;2023-06-04T11:33:25;0.82;;;0.60;;
67181;SDS011;54114;53.524;49.396;2023-06-04T11:35:51;1.60;;;0.80;;
67181;SDS011;54114;53.524;49.396;2023-06-04T11:38:18;2.33;;;0.68;;
67181;SDS011;54114;53.524;49.396;2023-06-04T11:40:54;1.15;;;0.82;;
67181;SDS011;54114;53.524;49.396;2023-06-04T11:43:31;4.05;;;0.70;;
67181;SDS011;54114;53.524;49.396;2023-06-04T11:46:04;1.02;;;0.70;;
67181;SDS011;54114;53.524;49.396;2023-06-04T11:48:36;4.35;;;0.80;;
67181;SDS011;54114;53.524;49.396;2023-06-04T11:51:07;1.20;;;0.77;;
67181;SDS011;54114;53.524;49.396;2023-06-04T11:53:39;0.95;;;0.80;;
67181;SDS011;54114;53.524;49.396;2023-06-04T11:56:08;1.45;;;1.17;;
67181;SDS011;54114;53.524;49.396;2023-06-04T11:58:38;1.83;;;1.10;;
67181;SDS011;54114;53.524;49.396;2023-06-04T12:01:08;2.90;;;1.02;;
67181;SDS011;54114;53.524;49.396;2023-06-04T12:03:37;1.17;;;0.90;;
67181;SDS011;54114;53.524;49.396;2023-06-04T12:06:16;4.70;;;1.02;;
67181;SDS011;54114;53.524;49.396;2023-06-04T12:08:53;2.58;;;1.25;;
67181;SDS011;54114;53.524;49.396;2023-06-04T12:11:25;2.67;;;0.95;;
67181;SDS011;54114;53.524;49.396;2023-06-04T12:13:56;4.20;;;1.00;;
67181;SDS011;54114;53.524;49.396;2023-06-04T12:16:26;2.08;;;1.00;;
67181;SDS011;54114;53.524;49.396;2023-06-04T12:19:03;2.65;;;1.02;;
67181;SDS011;54114;53.524;49.396;2023-06-04T12:21:40;5.05;;;1.00;;
67181;SDS011;54114;53.524;49.396;2023-06-04T12:24:09;3.35;;;1.02;;
67181;SDS011;54114;53.524;49.396;2023-06-04T12:26:39;1.40;;;1.00;;
67181;SDS011;54114;53.524;49.396;2023-06-04T12:29:12;2.17;;;0.80;;
67181;SDS011;54114;53.524;49.396;2023-06-04T12:31:40;1.55;;;0.95;;
67181;SDS011;54114;53.524;49.396;2023-06-04T12:34:10;0.80;;;0.80;;
67181;SDS011;54114;53.524;49.396;2023-06-04T12:36:38;1.77;;;1.00;;
67181;SDS011;54114;53.524;49.396;2023-06-04T12:39:06;2.70;;;0.73;;
67181;SDS011;54114;53.524;49.396;2023-06-04T12:41:33;1.52;;;0.82;;
67181;SDS011;54114;53.524;49.396;2023-06-04T12:44:01;1.45;;;0.80;;
67181;SDS011;54114;53.524;49.396;2023-06-04T12:46:28;1.98;;;1.02;;
67181;SDS011;54114;53.524;49.396;2023-06-04T12:48:55;3.60;;;0.80;;
67181;SDS011;54114;53.524;49.396;2023-06-04T12:51:24;4.97;;;0.98;;
67181;SDS011;54114;53.524;49.396;2023-06-04T12:53:51;2.20;;;0.93;;
67181;SDS011;54114;53.524;49.396;2023-06-04T12:56:18;6.37;;;1.08;;
67181;SDS011;54114;53.524;49.396;2023-06-04T12:58:45;2.50;;;1.00;;
67181;SDS011;54114;53.524;49.396;2023-06-04T13:01:11;1.10;;;1.00;;
67181;SDS011;54114;53.524;49.396;2023-06-04T13:03:41;1.60;;;1.00;;
67181;SDS011;54114;53.524;49.396;2023-06-04T13:06:08;1.80;;;0.88;;
67181;SDS011;54114;53.524;49.396;2023-06-04T13:08:36;1.33;;;0.80;;
67181;SDS011;54114;53.524;49.396;2023-06-04T13:11:03;2.25;;;1.12;;
67181;SDS011;54114;53.524;49.396;2023-06-04T13:13:31;2.12;;;0.70;;
67181;SDS011;54114;53.524;49.396;2023-06-04T13:15:57;1.83;;;1.00;;
67181;SDS011;54114;53.524;49.396;2023-06-04T13:18:24;1.48;;;0.93;;
67181;SDS011;54114;53.524;49.396;2023-06-04T13:20:51;1.05;;;0.90;;
67181;SDS011;54114;53.524;49.396;2023-06-04T13:23:21;1.98;;;1.15;;
67181;SDS011;54114;53.524;49.396;2023-06-04T13:25:48;2.37;;;0.82;;
67181;SDS011;54114;53.524;49.396;2023-06-04T13:28:18;3.92;;;0.90;;
67181;SDS011;54114;53.524;49.396;2023-06-04T13:30:45;1.27;;;0.88;;
67181;SDS011;54114;53.524;49.396;2023-06-04T13:33:12;1.95;;;1.00;;
67181;SDS011;54114;53.524;49.396;2023-06-04T13:35:39;1.52;;;1.00;;
67181;SDS011;54114;53.524;49.396;2023-06-04T13:38:07;3.50;;;1.00;;
67181;SDS011;54114;53.524;49.396;2023-06-04T13:40:34;1.58;;;1.05;;
67181;SDS011;54114;53.524;49.396;2023-06-04T13:43:01;1.20;;;0.70;;
67181;SDS011;54114;53.524;49.396;2023-06-04T13:45:28;1.42;;;0.80;;
67181;SDS011;54114;53.524;49.396;2023-06-04T13:47:55;2.28;;;1.20;;
67181;SDS011;54114;53.524;49.396;2023-06-04T13:50:27;1.58;;;1.00;;
67181;SDS011;54114;53.524;49.396;2023-06-04T13:52:54;2.15;;;1.20;;
67181;SDS011;54114;53.524;49.396;2023-06-04T13:55:21;1.73;;;1.15;;
67181;SDS011;54114;53.524;49.396;2023-06-04T13:57:48;1.60;;;1.20;;
67181;SDS011;54114;53.524;49.396;2023-06-04T14:00:14;1.92;;;1.20;;
67181;SDS011;54114;53.524;49.396;2023-06-04T14:02:41;1.85;;;1.42;;
67181;SDS011;54114;53.524;49.396;2023-06-04T14:05:08;1.87;;;1.33;;
67181;SDS011;54114;53.524;49.396;2023-06-04T14:07:37;3.30;;;1.30;;
67181;SDS011;54114;53.524;49.396;2023-06-04T14:10:07;1.67;;;1.17;;
67181;SDS011;54114;53.524;49.396;2023-06-04T14:12:38;6.20;;;1.00;;
67181;SDS011;54114;53.524;49.396;2023-06-04T14:15:09;1.42;;;0.93;;
67181;SDS011;54114;53.524;49.396;2023-06-04T14:17:39;1.90;;;0.88;;
67181;SDS011;54114;53.524;49.396;2023-06-04T14:20:08;1.55;;;0.80;;
67181;SDS011;54114;53.524;49.396;2023-06-04T14:22:36;3.03;;;1.02;;
67181;SDS011;54114;53.524;49.396;2023-06-04T14:25:04;3.00;;;0.95;;
67181;SDS011;54114;53.524;49.396;2023-06-04T14:27:32;2.83;;;1.17;;
67181;SDS011;54114;53.524;49.396;2023-06-04T14:30:03;10.75;;;1.00;;
67181;SDS011;54114;53.524;49.396;2023-06-04T14:32:30;3.30;;;0.90;;
67181;SDS011;54114;53.524;49.396;2023-06-04T14:34:59;1.20;;;0.82;;
67181;SDS011;54114;53.524;49.396;2023-06-04T14:37:26;1.62;;;0.90;;
67181;SDS011;54114;53.524;49.396;2023-06-04T14:39:57;3.22;;;0.98;;
67181;SDS011;54114;53.524;49.396;2023-06-04T14:42:24;2.00;;;0.90;;
67181;SDS011;54114;53.524;49.396;2023-06-04T14:44:51;1.35;;;0.82;;
67181;SDS011;54114;53.524;49.396;2023-06-04T14:47:17;1.37;;;0.80;;
67181;SDS011;54114;53.524;49.396;2023-06-04T14:49:46;8.05;;;1.00;;
67181;SDS011;54114;53.524;49.396;2023-06-04T14:52:13;1.55;;;1.00;;
67181;SDS011;54114;53.524;49.396;2023-06-04T14:54:40;1.00;;;0.80;;
67181;SDS011;54114;53.524;49.396;2023-06-04T14:57:06;2.03;;;0.93;;